Accueil
METAR-TAF:

METAR-TAF

Aéroports :

Mendoza, Argentine

latitude: 32-50S, longitude: 068-47W, altitude: 705 m

Observation

Le bulletin a été fait il y a 58 minutes, à 01:00 UTC
Vent calme
Température 21°C
Humidité 28%
Pression 1015 hPa
Visibilité 10 km ou plus
pas de nuages en-dessous de 1500 mètres et pas de cumulonimbus.

METAR: SAME 250100Z 00000KT CAVOK 21/02 Q1015

Heure: 22:58 (01:58 UTC)

Prévision

Le bulletin a été fait il y a 2 heures et 58 minutes, à 23:00 UTC
Prévision valable du 25 à 00 UTC au 25 à 24 UTC
Vent 5 kt de sud-est
Visibilité 10 km ou plus
pas de nuages en-dessous de 1500 mètres et pas de cumulonimbus.

TAF: SAME 242300Z 2500/2524 14005KT CAVOK TX32/2520Z TN16/2510Z

Observations et prévisions météorologiques de plus de 4000 aéroports (messages METAR et TAF).

Les stations disponibles sont représentées par des disques jaunes et rouges sur la carte.

Passer la souris dessus pour voir le nom de la station.

Cliquer dessus pour voir les observations et prévisions météorologiques.

Pour changer de carte: cliquez sur les boutons verts avec une croix noire pour zoomer, sur le bouton vert avec un tiret pour effectuer un zoom arrière, ou sur les flèches vertes pour les cartes adjacentes.


METAR-TAF: